Time;durP1;ratioP1;P1;durP2;ratioP2;P2;SDS_P1;SDS_P2;PMS_P1;PMS_P2;Temp;Humidity;BMP_temperature;BMP_pressure;BME280_temperature;BME280_humidity;BME280_pressure;Samples;Min_cycle;Max_cycle;Signal;HPM_P1;HPM_P2
2022/12/14 00:01:10;;;;;;;14.32;9.43;;;;;;;-2.50;91.85;100529.22;5136027;27;20569;-36
2022/12/14 00:03:36;;;;;;;12.93;8.30;;;;;;;-2.47;93.54;100532.41;5136333;27;20023;-36
2022/12/14 00:06:22;;;;;;;12.90;8.73;;;;;;;-2.47;93.54;100532.41;5136194;27;20031;-36
2022/12/14 00:08:49;;;;;;;13.48;8.65;;;;;;;-2.53;91.92;100518.97;5136709;27;20405;-36
2022/12/14 00:11:15;;;;;;;10.50;7.75;;;;;;;-2.41;92.79;100520.34;5136400;27;20019;-36
2022/12/14 00:13:42;;;;;;;12.63;8.48;;;;;;;-2.40;92.24;100506.13;5136881;27;20073;-36
2022/12/14 00:16:08;;;;;;;;;;;;;;;-2.36;93.26;100508.31;5136487;27;20114;-36
2022/12/14 00:18:33;;;;;;;11.68;8.10;;;;;;;-2.37;93.04;100492.59;5135921;27;19964;-36
2022/12/14 00:21:07;;;;;;;12.50;8.33;;;;;;;-2.35;92.60;100496.72;5135783;27;20049;-36
2022/12/14 00:23:33;;;;;;;13.45;8.30;;;;;;;-2.46;92.22;100482.91;5134851;27;20386;-35
2022/12/14 00:26:06;;;;;;;12.85;8.02;;;;;;;-2.33;93.23;100499.22;5136096;27;20096;-36
2022/12/14 00:28:31;;;;;;;12.40;7.95;;;;;;;-2.37;92.68;100496.06;5136434;27;20023;-36
2022/12/14 00:30:57;;;;;;;12.80;8.37;;;;;;;-2.42;92.22;100487.75;5135774;27;20019;-36
2022/12/14 00:33:22;;;;;;;10.55;7.40;;;;;;;-2.35;91.85;100503.84;5135476;27;20436;-36
2022/12/14 00:35:47;;;;;;;13.63;8.07;;;;;;;-2.37;92.11;100493.41;5135733;27;20024;-36
2022/12/14 00:38:13;;;;;;;11.33;8.17;;;;;;;-2.30;91.66;100504.19;5136113;27;20265;-36
2022/12/14 00:40:38;;;;;;;10.23;7.00;;;;;;;-2.39;91.46;100498.03;5135523;27;20325;-36
2022/12/14 00:43:04;;;;;;;11.70;7.97;;;;;;;-2.34;92.25;100490.47;5135426;27;20046;-36
2022/12/14 00:45:29;;;;;;;11.35;8.23;;;;;;;-2.36;91.59;100489.75;5135342;27;20490;-36
2022/12/14 00:47:55;;;;;;;12.00;8.77;;;;;;;-2.47;91.02;100476.78;5135703;27;20038;-36
2022/12/14 00:50:20;;;;;;;12.40;8.63;;;;;;;-2.44;90.70;100470.34;5135013;27;20031;-36
2022/12/14 00:52:46;;;;;;;13.63;7.93;;;;;;;-2.46;90.79;100464.38;5135363;27;20062;-36
2022/12/14 00:55:11;;;;;;;13.47;7.87;;;;;;;-2.50;90.68;100449.78;5135221;27;20276;-36
2022/12/14 00:57:36;;;;;;;16.57;9.00;;;;;;;-2.55;90.81;100446.78;5135333;27;20497;-36
2022/12/14 01:00:02;;;;;;;12.37;7.83;;;;;;;-2.52;90.48;100462.38;5135378;27;20023;-36
2022/12/14 01:02:28;;;;;;;11.82;8.23;;;;;;;-2.49;90.62;100459.38;5135059;27;20054;-35
2022/12/14 01:04:53;;;;;;;11.10;7.67;;;;;;;-2.63;89.60;100444.94;5134909;27;20049;-36
2022/12/14 01:07:18;;;;;;;10.93;7.80;;;;;;;-2.56;90.95;100443.31;5135108;27;20026;-36
2022/12/14 01:09:43;;;;;;;12.13;7.67;;;;;;;-2.58;90.29;100442.66;5135320;27;20023;-36
2022/12/14 01:12:09;;;;;;;11.33;7.47;;;;;;;-2.70;90.62;100418.22;5134884;27;20019;-35
2022/12/14 01:14:34;;;;;;;12.43;8.23;;;;;;;-2.60;90.83;100434.00;5133677;27;20039;-35
2022/12/14 01:17:00;;;;;;;10.93;8.00;;;;;;;-2.54;90.41;100438.66;5135174;27;20031;-37
2022/12/14 01:19:25;;;;;;;12.27;8.27;;;;;;;-2.54;90.42;100433.38;5135050;27;20037;-35
2022/12/14 01:21:52;;;;;;;12.47;8.47;;;;;;;-2.51;91.14;100437.53;5135570;27;20455;-35
2022/12/14 01:24:17;;;;;;;14.95;8.15;;;;;;;-2.55;91.79;100428.25;5134073;27;20409;-36
2022/12/14 01:26:43;;;;;;;11.93;7.97;;;;;;;-2.54;91.02;100425.44;5135268;27;20043;-35
2022/12/14 01:29:10;;;;;;;13.27;7.70;;;;;;;-2.52;90.77;100428.78;5135440;27;20265;-35
2022/12/14 01:31:37;;;;;;;11.63;7.82;;;;;;;-2.58;91.45;100410.88;5132801;27;20073;-35
2022/12/14 01:34:03;;;;;;;12.00;8.23;;;;;;;-2.62;90.00;100415.63;5133471;27;20066;-36
2022/12/14 01:36:32;;;;;;;10.95;7.50;;;;;;;-2.54;91.41;100409.53;5134247;27;20031;-36
2022/12/14 01:39:01;;;;;;;11.77;7.70;;;;;;;-2.53;90.83;100429.75;5134148;27;20110;-36
2022/12/14 01:41:28;;;;;;;12.07;8.23;;;;;;;-2.56;90.17;100429.25;5134154;27;20110;-36
2022/12/14 01:44:22;;;;;;;12.52;8.10;;;;;;;-2.57;90.52;100428.41;5134687;27;20394;-36
2022/12/14 01:47:06;;;;;;;10.88;7.70;;;;;;;-2.54;91.57;100430.72;5134345;27;20459;-36
2022/12/14 01:49:38;;;;;;;11.75;8.05;;;;;;;-2.55;91.68;100434.38;5134718;27;20031;-35
2022/12/14 01:52:08;;;;;;;11.57;7.93;;;;;;;-2.56;91.39;100426.59;5133222;27;20019;-35
2022/12/14 01:54:36;;;;;;;9.50;7.13;;;;;;;-2.51;91.07;100422.47;5134119;27;20050;-36
2022/12/14 01:57:02;;;;;;;11.88;8.10;;;;;;;-2.60;90.44;100426.06;5133859;27;20075;-35
2022/12/14 01:59:33;;;;;;;13.52;8.77;;;;;;;-2.68;90.72;100412.78;5134629;27;20395;-35
2022/12/14 02:02:02;;;;;;;10.75;7.93;;;;;;;-2.58;91.27;100424.09;5134599;27;20027;-36
2022/12/14 02:04:28;;;;;;;11.48;7.80;;;;;;;-2.73;90.39;100399.16;5132876;27;20035;-36
2022/12/14 02:06:54;;;;;;;13.73;8.02;;;;;;;-2.64;90.96;100414.94;5133771;27;20160;-36
2022/12/14 02:09:25;;;;;;;11.57;7.82;;;;;;;-2.65;90.22;100407.16;5134616;27;20035;-36
2022/12/14 02:12:23;;;;;;;11.18;8.13;;;;;;;-2.58;92.14;100416.16;5134529;27;20444;-36
2022/12/14 02:14:51;;;;;;;13.68;7.95;;;;;;;-2.55;91.58;100410.53;5134544;27;20023;-36
2022/12/14 02:17:18;;;;;;;10.20;7.53;;;;;;;-2.54;91.92;100404.25;5134096;27;20054;-35
2022/12/14 02:19:45;;;;;;;12.02;7.50;;;;;;;-2.55;92.00;100402.59;5134130;27;20035;-36
2022/12/14 02:22:48;;;;;;;14.75;8.52;;;;;;;-2.54;91.47;100404.25;5134287;28;20076;-35
2022/12/14 02:25:29;;;;;;;12.10;7.60;;;;;;;-2.67;91.14;100395.94;5134006;27;20051;-36
2022/12/14 02:28:34;;;;;;;11.00;6.97;;;;;;;-2.57;90.81;100396.66;5134423;28;20024;-36
2022/12/14 02:31:09;;;;;;;12.90;8.30;;;;;;;-2.57;91.72;100396.66;5134205;28;20503;-36
2022/12/14 02:33:52;;;;;;;12.63;7.78;;;;;;;-2.64;91.68;100379.72;5133983;28;20405;-36
2022/12/14 02:36:28;;;;;;;13.27;7.38;;;;;;;-2.56;92.86;100378.94;5133936;28;20353;-36
2022/12/14 02:38:57;;;;;;;12.60;8.30;;;;;;;-2.60;90.77;100384.53;5133627;28;20020;-36
2022/12/14 02:41:25;;;;;;;12.27;7.68;;;;;;;-2.58;92.68;100376.47;5133996;27;20417;-36
2022/12/14 02:44:02;;;;;;;11.23;7.53;;;;;;;-2.54;91.77;100396.31;5138372;27;20031;-35
2022/12/14 02:46:56;;;;;;;12.38;7.82;;;;;;;-2.50;91.72;100387.06;5137969;27;20029;-36
2022/12/14 02:49:52;;;;;;;11.82;7.63;;;;;;;-2.51;92.30;100385.41;5138015;27;20191;-36
2022/12/14 02:52:39;;;;;;;11.93;7.75;;;;;;;-2.58;91.02;100389.69;5137700;27;20027;-36
2022/12/14 02:55:17;;;;;;;10.90;7.60;;;;;;;-2.54;90.88;100390.19;5137954;27;20439;-36
2022/12/14 02:57:51;;;;;;;11.52;8.32;;;;;;;-2.65;90.33;100391.28;5137855;27;20070;-36
2022/12/14 03:00:17;;;;;;;13.57;7.93;;;;;;;-2.70;92.56;100369.75;5136320;27;20542;-35
2022/12/14 03:02:44;;;;;;;12.07;7.53;;;;;;;-2.59;91.60;100388.00;5137132;27;20471;-36
2022/12/14 03:05:10;;;;;;;10.27;7.50;;;;;;;-2.60;91.35;100379.25;5137519;27;20028;-35
2022/12/14 03:07:46;;;;;;;11.48;7.15;;;;;;;-2.47;92.83;100386.75;5135846;27;20020;-36
2022/12/14 03:10:33;;;;;;;10.43;7.30;;;;;;;-2.39;93.02;100384.16;5137386;27;20035;-36
2022/12/14 03:13:15;;;;;;;10.90;6.25;;;;;;;-2.28;95.15;100384.88;5137382;27;20055;-36
2022/12/14 03:15:44;;;;;;;12.10;6.72;;;;;;;-2.31;93.45;100385.19;5137957;27;20022;-36
2022/12/14 03:18:12;;;;;;;12.00;7.85;;;;;;;-2.44;91.55;100367.94;5137464;27;20023;-36
2022/12/14 03:20:41;;;;;;;11.75;7.32;;;;;;;-2.42;91.98;100379.19;5137001;27;20120;-35
2022/12/14 03:23:11;;;;;;;10.23;6.97;;;;;;;-2.47;90.83;100381.47;5137578;27;20045;-36
2022/12/14 03:25:45;;;;;;;11.45;7.00;;;;;;;-2.47;91.22;100375.34;5136833;27;20054;-36
2022/12/14 03:28:19;;;;;;;9.43;7.15;;;;;;;-2.35;95.40;100374.91;5137767;27;20047;-35
2022/12/14 03:30:51;;;;;;;10.20;7.50;;;;;;;-2.35;94.07;100369.59;5136917;27;20019;-35
2022/12/14 03:33:22;;;;;;;9.00;6.47;;;;;;;-2.36;94.00;100360.00;5136984;27;20059;-36
2022/12/14 03:36:10;;;;;;;12.98;7.55;;;;;;;-2.34;92.33;100360.69;5135753;27;20067;-36
2022/12/14 03:38:40;;;;;;;10.20;6.95;;;;;;;-2.39;91.26;100356.84;5136995;27;20034;-36
2022/12/14 03:41:11;;;;;;;9.60;6.50;;;;;;;-2.39;90.63;100352.41;5136381;27;20495;-36
2022/12/14 03:43:51;;;;;;;10.80;6.80;;;;;;;-2.47;88.68;100349.69;5136906;27;20062;-36
2022/12/14 03:46:29;;;;;;;11.52;7.13;;;;;;;-2.44;90.48;100344.09;5136706;27;20023;-36
2022/12/14 03:49:12;;;;;;;9.80;7.25;;;;;;;-2.52;89.07;100343.22;5136628;27;20054;-36
2022/12/14 03:51:51;;;;;;;9.45;6.70;;;;;;;-2.52;90.13;100340.56;5136796;27;20058;-35
2022/12/14 03:54:25;;;;;;;10.68;6.55;;;;;;;-2.47;92.27;100332.97;5135210;27;20363;-36
2022/12/14 03:57:01;;;;;;;14.35;8.50;;;;;;;-2.58;88.62;100330.63;5135303;27;20043;-35
2022/12/14 04:00:00;;;;;;;10.43;6.60;;;;;;;-2.57;90.22;100324.34;5136370;27;20054;-36
2022/12/14 04:02:31;;;;;;;10.13;6.95;;;;;;;-2.56;91.90;100324.16;5136907;27;20031;-36
2022/12/14 04:05:27;;;;;;;10.60;7.28;;;;;;;-2.62;89.75;100332.75;5136760;27;20031;-36
2022/12/14 04:08:11;;;;;;;12.23;7.45;;;;;;;-2.72;89.13;100330.22;5092740;28;20100;-40
2022/12/14 04:19:25;;;;;;;10.40;6.85;;;;;;;-2.67;90.73;100312.06;5093085;28;20074;-36
2022/12/14 04:22:11;;;;;;;12.25;7.80;;;;;;;-2.73;90.63;100298.59;5092580;28;20101;-36
2022/12/14 04:27:57;;;;;;;9.77;6.75;;;;;;;-2.64;90.58;100305.59;5093089;28;20042;-36
2022/12/14 04:30:22;;;;;;;9.68;6.15;;;;;;;-2.56;90.42;100304.81;5092496;28;20427;-36
2022/12/14 04:32:50;;;;;;;11.18;6.95;;;;;;;-2.63;89.73;100296.69;5092511;28;20043;-36
2022/12/14 04:35:23;;;;;;;12.93;7.25;;;;;;;-2.67;89.42;100288.22;5092318;28;20028;-36
2022/12/14 04:37:53;;;;;;;11.93;6.88;;;;;;;-2.61;90.48;100290.22;5092933;28;20044;-36
2022/12/14 04:40:47;;;;;;;11.68;7.40;;;;;;;-2.59;90.80;100290.06;5092792;28;20096;-36
2022/12/14 04:43:18;;;;;;;9.93;6.28;;;;;;;-2.62;91.03;100270.03;5091864;28;20469;-36
2022/12/14 04:45:51;;;;;;;10.73;6.35;;;;;;;-2.55;90.66;100283.47;5132884;27;20036;-36
2022/12/14 04:48:31;;;;;;;9.90;6.85;;;;;;;-2.49;92.08;100282.84;5135058;27;20483;-36
2022/12/14 04:51:09;;;;;;;9.57;6.80;;;;;;;-2.50;92.17;100281.16;5134237;27;20028;-36
2022/12/14 04:53:37;;;;;;;10.40;6.63;;;;;;;-2.58;91.22;100267.91;5135380;27;20034;-36
2022/12/14 04:56:35;;;;;;;10.23;6.57;;;;;;;-2.52;90.69;100272.56;5135821;27;20027;-36
2022/12/14 04:59:01;;;;;;;;;;;;;;;-2.45;91.67;100272.75;5092290;28;20044;-36
2022/12/14 05:01:26;;;;;;;10.02;6.07;;;;;;;-2.48;91.97;100268.63;5074784;28;19919;-36
2022/12/14 05:04:12;;;;;;;8.97;5.83;;;;;;;-2.52;92.46;100250.56;5092186;28;20163;-36
2022/12/14 05:07:03;;;;;;;10.68;7.20;;;;;;;-2.58;90.04;100265.28;5091001;28;20039;-36
2022/12/14 05:09:41;;;;;;;9.52;6.63;;;;;;;-2.63;89.83;100260.47;5091568;28;20036;-36
2022/12/14 05:12:22;;;;;;;11.43;7.03;;;;;;;-2.63;89.58;100263.09;5074512;28;20032;-36
2022/12/14 05:14:53;;;;;;;9.77;6.85;;;;;;;-2.64;89.85;100255.31;5074792;28;20123;-36
2022/12/14 05:17:18;;;;;;;11.07;6.97;;;;;;;-2.64;89.74;100260.59;5091952;28;20067;-36
2022/12/14 05:19:48;;;;;;;9.57;6.07;;;;;;;-2.70;90.26;100251.47;5091410;28;20476;-36
2022/12/14 05:22:14;;;;;;;8.88;5.88;;;;;;;-2.61;89.92;100255.81;5091434;28;20048;-36
2022/12/14 05:24:39;;;;;;;9.65;6.18;;;;;;;-2.61;91.42;100258.47;5091400;28;20028;-36
2022/12/14 05:27:05;;;;;;;9.13;5.73;;;;;;;-2.60;90.03;100254.81;5091955;28;20035;-36
2022/12/14 05:29:30;;;;;;;9.20;6.20;;;;;;;-2.70;90.62;100237.41;5092137;28;20127;-36
2022/12/14 05:31:55;;;;;;;8.70;6.30;;;;;;;-2.64;90.73;100236.78;5092049;28;20089;-36
2022/12/14 05:34:21;;;;;;;8.45;6.18;;;;;;;-2.56;91.59;100249.22;5091251;28;20036;-45
2022/12/14 05:36:46;;;;;;;10.70;6.32;;;;;;;-2.52;90.58;100245.25;5132073;27;20039;-36
2022/12/14 05:39:13;;;;;;;9.47;6.03;;;;;;;-2.44;91.00;100247.91;5134519;27;20031;-36
2022/12/14 05:41:38;;;;;;;9.65;6.25;;;;;;;-2.47;92.55;100230.56;5134701;27;20109;-36
2022/12/14 05:44:04;;;;;;;9.53;6.70;;;;;;;-2.45;89.97;100246.25;5134478;27;20439;-36
2022/12/14 05:46:29;;;;;;;9.83;6.37;;;;;;;-2.34;93.49;100241.50;5134379;27;20035;-36
2022/12/14 05:48:54;;;;;;;8.40;5.97;;;;;;;-2.30;93.46;100243.81;5134626;27;20099;-36
2022/12/14 05:51:20;;;;;;;11.03;6.47;;;;;;;-2.31;92.09;100248.28;5134420;27;20437;-36
2022/12/14 05:53:45;;;;;;;10.83;6.17;;;;;;;-2.27;92.28;100244.34;5134520;27;20416;-36
2022/12/14 05:56:11;;;;;;;9.57;6.37;;;;;;;-2.34;94.13;100215.03;5134498;27;20099;-36
2022/12/14 05:58:37;;;;;;;9.45;6.15;;;;;;;-2.14;92.64;100246.53;5134224;27;20383;-36
2022/12/14 06:01:06;;;;;;;11.07;6.85;;;;;;;-2.24;90.66;100248.50;5133810;27;20509;-36
2022/12/14 06:03:32;;;;;;;12.30;6.90;;;;;;;-2.29;89.33;100246.31;5134299;27;20376;-36
2022/12/14 06:06:05;;;;;;;8.18;5.47;;;;;;;-2.13;95.62;100246.34;5134042;27;20026;-36
2022/12/14 06:08:33;;;;;;;8.23;5.70;;;;;;;-2.11;94.37;100246.19;5135059;27;20368;-36
2022/12/14 06:11:07;;;;;;;10.55;6.30;;;;;;;-2.30;91.40;100234.06;5133918;27;20039;-36
2022/12/14 06:13:37;;;;;;;10.80;6.65;;;;;;;-2.37;90.10;100219.81;5133676;27;20084;-36
2022/12/14 06:16:26;;;;;;;11.60;6.43;;;;;;;-2.29;90.66;100229.56;5133812;27;20148;-36
2022/12/14 06:18:54;;;;;;;10.38;7.10;;;;;;;-2.45;89.27;100217.13;5090728;28;20032;-36
2022/12/14 06:21:24;;;;;;;9.68;6.28;;;;;;;-2.35;92.38;100233.72;5090796;28;20040;-36
2022/12/14 06:23:50;;;;;;;9.70;6.07;;;;;;;-2.41;93.21;100221.13;5091398;28;20142;-36
2022/12/14 06:26:15;;;;;;;9.48;6.45;;;;;;;-2.40;90.46;100239.50;5090825;28;20052;-36
2022/12/14 06:28:41;;;;;;;8.70;6.15;;;;;;;-2.39;91.20;100227.06;5091367;28;20040;-36
2022/12/14 06:31:12;;;;;;;11.23;6.60;;;;;;;-2.57;89.08;100226.38;5090685;28;20055;-36
2022/12/14 06:33:37;;;;;;;12.15;6.40;;;;;;;-2.55;90.77;100235.81;5074215;28;20439;-36
2022/12/14 06:36:03;;;;;;;11.07;6.90;;;;;;;-2.56;90.47;100231.50;5090332;28;20048;-36
2022/12/14 06:38:29;;;;;;;9.47;6.63;;;;;;;-2.62;91.22;100224.22;5090916;28;20063;-36
2022/12/14 06:40:54;;;;;;;9.93;5.72;;;;;;;-2.50;92.44;100230.03;5090324;28;20286;-36
2022/12/14 06:43:22;;;;;;;13.37;6.93;;;;;;;-2.50;90.85;100243.28;5073484;28;20119;-36
2022/12/14 06:45:48;;;;;;;8.25;5.95;;;;;;;-2.51;95.61;100215.16;5090384;28;20468;-36
2022/12/14 06:48:13;;;;;;;11.47;6.60;;;;;;;-2.39;92.91;100238.53;5090807;28;20051;-36
2022/12/14 06:50:38;;;;;;;10.03;7.27;;;;;;;-2.54;90.63;100245.41;5091053;28;20128;-36
2022/12/14 06:53:04;;;;;;;9.43;6.87;;;;;;;-2.49;92.49;100234.34;5090593;28;20071;-36
2022/12/14 06:55:29;;;;;;;9.37;6.40;;;;;;;-2.64;90.18;100244.72;5092223;28;20554;-36
2022/12/14 06:57:55;;;;;;;12.07;7.47;;;;;;;-2.52;94.22;100245.25;5133310;28;20390;-41
2022/12/14 07:00:22;;;;;;;8.70;5.97;;;;;;;-2.42;96.58;100244.13;5133638;28;20027;-35
2022/12/14 07:02:48;;;;;;;8.82;5.63;;;;;;;-2.34;97.69;100251.28;5133656;28;20032;-36
2022/12/14 07:05:14;;;;;;;9.63;6.57;;;;;;;-2.49;93.71;100251.06;5133402;28;20027;-36
2022/12/14 07:07:39;;;;;;;9.13;5.88;;;;;;;-2.39;95.41;100248.25;5133156;28;20038;-35
2022/12/14 07:10:07;;;;;;;9.95;6.45;;;;;;;-2.52;91.70;100256.69;5133440;28;20031;-36
2022/12/14 07:12:32;;;;;;;10.88;6.50;;;;;;;-2.42;94.42;100245.97;5132141;28;20114;-36
2022/12/14 07:14:57;;;;;;;10.63;6.97;;;;;;;-2.42;93.30;100252.06;5132207;28;20126;-35
2022/12/14 07:17:23;;;;;;;9.57;6.47;;;;;;;-2.39;95.12;100241.16;5134060;28;20069;-36
2022/12/14 07:19:48;;;;;;;8.60;6.07;;;;;;;-2.58;92.22;100238.81;5133751;27;20074;-36
2022/12/14 07:22:14;;;;;;;8.05;5.82;;;;;;;-2.50;94.90;100254.69;5133317;28;20576;-36
2022/12/14 07:24:39;;;;;;;10.93;6.10;;;;;;;-2.46;96.92;100249.91;5133245;28;20023;-36
2022/12/14 07:27:05;;;;;;;10.82;6.65;;;;;;;-2.68;92.64;100251.34;5133279;28;20059;-36
2022/12/14 07:29:31;;;;;;;10.25;6.70;;;;;;;-2.72;92.82;100260.59;5135529;27;20034;-36
2022/12/14 07:31:56;;;;;;;9.90;6.95;;;;;;;-2.76;94.25;100251.28;5137672;27;20124;-36
2022/12/14 07:34:21;;;;;;;9.37;6.50;;;;;;;-2.89;93.39;100255.19;5137003;27;20027;-36
2022/12/14 07:36:51;;;;;;;9.13;6.47;;;;;;;-2.86;94.15;100254.91;5137132;27;20032;-36
2022/12/14 07:39:16;;;;;;;8.65;6.60;;;;;;;-2.91;93.49;100251.91;5136476;27;20288;-36
2022/12/14 07:41:43;;;;;;;10.30;6.73;;;;;;;-2.94;93.57;100256.66;5136708;27;20160;-36
2022/12/14 07:44:09;;;;;;;10.48;7.47;;;;;;;-3.03;93.37;100241.72;5136640;27;20034;-36
2022/12/14 07:46:35;;;;;;;10.55;7.30;;;;;;;-3.02;94.17;100246.88;5136820;27;20027;-35
2022/12/14 07:49:01;;;;;;;11.37;7.53;;;;;;;-3.12;93.15;100259.41;5136613;27;20031;-36
2022/12/14 07:51:29;;;;;;;11.07;6.93;;;;;;;-3.23;93.13;100267.56;5136574;27;20027;-36
2022/12/14 07:53:55;;;;;;;12.23;8.13;;;;;;;-3.37;93.43;100264.53;5136740;27;20054;-35
2022/12/14 07:56:24;;;;;;;10.15;6.60;;;;;;;-3.25;96.98;100258.97;5136477;27;20027;-36
2022/12/14 07:58:50;;;;;;;10.40;7.22;;;;;;;-3.23;95.50;100262.28;5136369;27;20042;-35
2022/12/14 08:01:16;;;;;;;12.82;8.43;;;;;;;-3.11;97.34;100275.09;5136445;27;20025;-36
2022/12/14 08:03:45;;;;;;;12.18;7.28;;;;;;;-3.22;95.42;100262.16;5135098;27;20031;-35
2022/12/14 08:06:12;;;;;;;10.73;6.65;;;;;;;-3.21;94.83;100278.84;5136733;27;20074;-36
2022/12/14 08:08:38;;;;;;;10.63;7.20;;;;;;;-3.32;93.37;100284.38;5135138;27;20029;-36
2022/12/14 08:11:04;;;;;;;10.23;7.18;;;;;;;-3.43;93.03;100283.63;5136818;27;20027;-35
2022/12/14 08:13:30;;;;;;;9.70;7.13;;;;;;;-3.43;94.04;100283.63;5136297;27;20039;-36
2022/12/14 08:15:55;;;;;;;10.67;7.83;;;;;;;-3.45;94.12;100280.34;5136235;27;20027;-36
2022/12/14 08:18:21;;;;;;;10.63;6.70;;;;;;;-3.40;95.56;100280.69;5136226;27;20257;-36
2022/12/14 08:20:50;;;;;;;10.73;7.38;;;;;;;-3.37;95.18;100283.03;5136007;27;20452;-35
2022/12/14 08:23:16;;;;;;;9.80;6.35;;;;;;;-3.24;96.42;100285.25;5136842;27;20312;-35
2022/12/14 08:25:41;;;;;;;9.32;7.00;;;;;;;-3.30;94.25;100277.13;5135744;27;20047;-36
2022/12/14 08:28:07;;;;;;;11.37;8.00;;;;;;;-3.24;94.74;100287.06;5136079;27;20083;-35
2022/12/14 08:30:37;;;;;;;9.97;6.67;;;;;;;-3.59;92.07;100270.31;5135973;27;20463;-36
2022/12/14 08:33:03;;;;;;;11.35;7.53;;;;;;;-3.56;92.49;100293.81;5134423;27;20019;-36
2022/12/14 08:35:31;;;;;;;10.35;7.15;;;;;;;-3.67;92.56;100296.66;5136284;27;20031;-36
2022/12/14 08:37:57;;;;;;;11.35;7.07;;;;;;;-3.76;93.32;100295.75;5135634;27;20027;-36
2022/12/14 08:40:22;;;;;;;9.13;6.40;;;;;;;-3.58;96.89;100290.47;5135244;27;20534;-36
2022/12/14 08:42:49;;;;;;;10.90;7.17;;;;;;;-3.44;98.33;100289.91;5134206;27;20042;-35
2022/12/14 08:45:14;;;;;;;9.68;6.95;;;;;;;-3.31;98.29;100289.53;5135638;27;20479;-35
2022/12/14 08:47:39;;;;;;;9.50;6.20;;;;;;;-3.27;97.03;100282.94;5135981;27;20019;-36
2022/12/14 08:50:05;;;;;;;9.70;6.90;;;;;;;-3.29;95.62;100284.06;5134802;27;20383;-36
2022/12/14 08:52:31;;;;;;;13.18;7.05;;;;;;;-3.31;93.79;100286.06;5135924;27;20459;-36
2022/12/14 08:54:56;;;;;;;9.47;6.70;;;;;;;-3.34;93.69;100289.00;5135238;27;20027;-36
2022/12/14 08:57:21;;;;;;;13.00;7.10;;;;;;;-3.34;94.85;100292.47;5136217;27;20024;-36
2022/12/14 08:59:47;;;;;;;11.07;6.70;;;;;;;-3.35;93.67;100290.81;5135177;27;20031;-35
2022/12/14 09:02:12;;;;;;;9.63;7.27;;;;;;;-3.25;94.56;100293.34;5135411;27;20030;-36
2022/12/14 09:04:37;;;;;;;9.60;6.40;;;;;;;-3.17;95.18;100288.13;5136012;27;20245;-36
2022/12/14 09:07:03;;;;;;;8.93;6.43;;;;;;;-3.22;93.27;100290.38;5135430;27;20027;-35
2022/12/14 09:09:28;;;;;;;10.47;5.87;;;;;;;-3.09;93.40;100288.16;5134128;27;20033;-36
2022/12/14 09:11:53;;;;;;;10.07;6.23;;;;;;;-3.05;93.27;100286.03;5135897;27;20027;-36
2022/12/14 09:14:19;;;;;;;10.30;6.23;;;;;;;-2.92;93.98;100300.50;5134965;27;20024;-35
2022/12/14 09:16:44;;;;;;;11.23;7.07;;;;;;;-3.04;92.24;100301.75;5134804;27;20364;-35
2022/12/14 09:19:09;;;;;;;9.07;6.17;;;;;;;-3.16;91.80;100295.91;5135273;27;20026;-36
2022/12/14 09:21:35;;;;;;;10.10;6.37;;;;;;;-3.12;92.62;100296.44;5135771;27;20344;-36
2022/12/14 09:24:00;;;;;;;10.43;6.07;;;;;;;-2.97;93.64;100310.75;5134955;27;20490;-35
2022/12/14 09:26:26;;;;;;;10.77;6.83;;;;;;;-3.11;91.30;100311.31;5134527;27;20043;-35
2022/12/14 09:28:53;;;;;;;10.23;6.97;;;;;;;-3.04;91.97;100320.25;5135275;27;20331;-35
2022/12/14 09:31:21;;;;;;;10.73;6.45;;;;;;;-2.92;95.24;100300.50;5134992;27;20019;-35
2022/12/14 09:33:47;;;;;;;10.95;6.88;;;;;;;-2.83;93.26;100313.75;5134422;27;20507;-35
2022/12/14 09:36:18;;;;;;;9.50;6.57;;;;;;;-2.81;91.86;100314.47;5134539;27;20114;-35
2022/12/14 09:38:45;;;;;;;9.00;6.63;;;;;;;-2.73;92.57;100309.19;5134846;27;20023;-35
2022/12/14 09:41:32;;;;;;;9.50;6.60;;;;;;;-2.62;92.35;100308.94;5134933;27;20109;-35
2022/12/14 09:44:15;;;;;;;13.32;7.40;;;;;;;-2.61;90.32;100306.13;5135101;27;20031;-36
2022/12/14 09:46:46;;;;;;;9.45;6.13;;;;;;;-2.66;89.96;100312.88;5134101;27;20058;-36
2022/12/14 09:49:35;;;;;;;8.90;5.90;;;;;;;-2.46;91.50;100314.28;5134720;27;20503;-35
2022/12/14 09:52:04;;;;;;;10.70;7.00;;;;;;;-2.47;90.31;100302.03;5131854;27;20160;-35
2022/12/14 09:54:38;;;;;;;8.75;6.05;;;;;;;-2.39;88.81;100310.03;5133307;27;20468;-36
2022/12/14 09:57:34;;;;;;;10.98;6.65;;;;;;;-2.41;88.79;100309.34;5134767;27;20034;-35
2022/12/14 09:59:59;;;;;;;7.97;5.60;;;;;;;-2.29;90.14;100303.72;5131512;27;20122;-36
2022/12/14 10:02:36;;;;;;;9.03;6.70;;;;;;;-2.20;89.65;100300.13;5133247;27;20055;-35
2022/12/14 10:05:13;;;;;;;;;;;;;;;-2.07;90.13;100303.97;5135158;27;20046;-35
2022/12/14 10:08:14;;;;;;;9.90;6.13;;;;;;;-1.96;90.65;100302.81;5134096;27;20016;-35
2022/12/14 10:11:04;;;;;;;9.43;5.32;;;;;;;-1.80;92.31;100301.22;5134081;27;20046;-35
2022/12/14 10:13:57;;;;;;;9.32;6.53;;;;;;;-1.90;88.48;100290.78;5134271;27;20019;-35
2022/12/14 10:16:44;;;;;;;9.27;6.20;;;;;;;-1.89;86.68;100300.38;5133661;27;20023;-36
2022/12/14 10:19:16;;;;;;;9.02;6.18;;;;;;;-2.07;85.16;100298.66;5133996;27;20023;-36
2022/12/14 10:22:09;;;;;;;7.90;5.60;;;;;;;-2.03;86.54;100291.25;5133787;27;20046;-36
2022/12/14 10:24:41;;;;;;;9.07;6.05;;;;;;;-1.81;88.63;100289.75;5133641;28;20114;-35
2022/12/14 10:27:08;;;;;;;8.48;5.95;;;;;;;-1.80;85.91;100306.53;5133817;28;20040;-35
2022/12/14 10:29:46;;;;;;;9.18;5.90;;;;;;;-1.76;88.60;100289.28;5134172;28;20039;-35
2022/12/14 10:32:11;;;;;;;8.80;5.68;;;;;;;-1.52;90.71;100294.59;5134688;28;20378;-35
2022/12/14 10:34:42;;;;;;;14.47;6.90;;;;;;;-1.51;87.72;100304.22;5133166;28;20035;-35
2022/12/14 10:37:24;;;;;;;10.93;5.35;;;;;;;-1.53;85.29;100313.31;5132370;28;20035;-35
2022/12/14 10:40:08;;;;;;;9.00;5.35;;;;;;;-1.51;86.28;100306.88;5133682;28;20019;-35
2022/12/14 10:42:53;;;;;;;10.07;6.20;;;;;;;-1.45;86.48;100308.84;5134303;28;20418;-36
2022/12/14 10:45:45;;;;;;;7.45;5.45;;;;;;;-1.36;85.75;100305.19;5134308;28;20095;-36
2022/12/14 10:48:29;;;;;;;8.70;5.68;;;;;;;-1.25;86.88;100301.38;5133968;28;20034;-36
2022/12/14 10:51:19;;;;;;;9.20;6.15;;;;;;;-1.45;82.61;100292.13;5134325;27;20027;-35
2022/12/14 10:54:11;;;;;;;9.23;6.28;;;;;;;-1.23;86.40;100311.81;5090593;28;20067;-35
2022/12/14 10:56:40;;;;;;;7.57;5.40;;;;;;;-1.30;85.68;100272.69;5090673;28;20056;-35
2022/12/14 10:59:22;;;;;;;8.30;5.65;;;;;;;-1.08;85.52;100303.00;5090409;28;20045;-35
2022/12/14 11:02:06;;;;;;;8.50;5.47;;;;;;;-1.12;82.82;100300.88;5090190;28;20489;-35
2022/12/14 11:04:57;;;;;;;13.00;9.80;;;;;;;-0.98;84.76;100294.84;5092692;28;20082;-35
2022/12/14 11:07:37;;;;;;;8.90;6.30;;;;;;;-0.88;83.02;100292.84;5094179;28;20561;-36
2022/12/14 11:10:22;;;;;;;8.10;5.80;;;;;;;-0.77;83.58;100290.84;5094689;28;20067;-35
2022/12/14 11:12:59;;;;;;;6.95;5.05;;;;;;;-0.83;82.51;100298.47;5094493;28;20396;-35
2022/12/14 11:15:39;;;;;;;8.15;5.28;;;;;;;-0.77;82.47;100296.16;5094509;28;20028;-35
2022/12/14 11:18:18;;;;;;;11.65;6.57;;;;;;;-0.89;80.80;100299.13;5094093;28;20043;-35
2022/12/14 11:20:57;;;;;;;8.73;5.93;;;;;;;-0.80;83.25;100300.78;5094082;28;20054;-35
2022/12/14 11:23:28;;;;;;;9.27;5.78;;;;;;;-0.80;80.22;100302.59;5094221;28;20112;-36
2022/12/14 11:26:02;;;;;;;8.02;5.25;;;;;;;-0.68;82.20;100300.41;5094346;28;20062;-36
2022/12/14 11:28:49;;;;;;;8.60;5.72;;;;;;;-0.72;80.37;100305.25;5093992;28;20038;-36
2022/12/14 11:31:33;;;;;;;7.78;5.38;;;;;;;-0.64;81.75;100301.72;5114236;27;20035;-36
2022/12/14 11:34:00;;;;;;;7.93;5.75;;;;;;;-0.68;80.15;100295.09;5137670;27;20368;-36
2022/12/14 11:36:36;;;;;;;8.32;5.05;;;;;;;-0.71;80.47;100298.94;5136644;27;20502;-35
2022/12/14 11:39:13;;;;;;;4.93;3.65;;;;;;;-0.64;82.27;100291.09;5137319;27;20031;-35
2022/12/14 11:41:48;;;;;;;8.93;6.07;;;;;;;-0.67;78.34;100296.78;5136543;27;20015;-36
2022/12/14 11:44:14;;;;;;;8.00;5.93;;;;;;;-0.65;79.38;100300.06;5137032;27;20422;-35
2022/12/14 11:46:59;;;;;;;10.50;6.78;;;;;;;-0.53;81.06;100291.56;5137339;27;20039;-36
2022/12/14 11:49:41;;;;;;;10.27;5.78;;;;;;;-0.59;79.87;100294.88;5137212;27;20027;-35
2022/12/14 11:52:11;;;;;;;8.00;5.97;;;;;;;-0.55;79.36;100295.38;5136325;27;20031;-36
2022/12/14 11:54:39;;;;;;;7.75;5.95;;;;;;;-0.57;77.50;100284.13;5137283;27;20027;-36